sensor_id;sensor_type;location;lat;lon;timestamp;temperature;humidity
5134;DHT22;2585;48.696;10.066;2023-04-25T00:01:23;4.90;77.10
5134;DHT22;2585;48.696;10.066;2023-04-25T00:03:50;5.00;79.60
5134;DHT22;2585;48.696;10.066;2023-04-25T00:06:18;5.00;81.30
5134;DHT22;2585;48.696;10.066;2023-04-25T00:08:45;5.00;82.00
5134;DHT22;2585;48.696;10.066;2023-04-25T00:11:12;5.00;81.90
5134;DHT22;2585;48.696;10.066;2023-04-25T00:13:38;5.00;81.30
5134;DHT22;2585;48.696;10.066;2023-04-25T00:16:08;5.00;81.40
5134;DHT22;2585;48.696;10.066;2023-04-25T00:18:35;5.10;82.80
5134;DHT22;2585;48.696;10.066;2023-04-25T00:21:02;5.10;83.80
5134;DHT22;2585;48.696;10.066;2023-04-25T00:23:29;5.10;84.00
5134;DHT22;2585;48.696;10.066;2023-04-25T00:25:56;5.20;85.10
5134;DHT22;2585;48.696;10.066;2023-04-25T00:28:23;5.10;84.80
5134;DHT22;2585;48.696;10.066;2023-04-25T00:30:49;5.10;84.70
5134;DHT22;2585;48.696;10.066;2023-04-25T00:33:16;5.10;85.60
5134;DHT22;2585;48.696;10.066;2023-04-25T00:35:43;5.10;86.60
5134;DHT22;2585;48.696;10.066;2023-04-25T00:38:10;5.10;88.60
5134;DHT22;2585;48.696;10.066;2023-04-25T00:40:37;5.10;89.70
5134;DHT22;2585;48.696;10.066;2023-04-25T00:43:04;5.10;90.20
5134;DHT22;2585;48.696;10.066;2023-04-25T00:45:30;5.10;90.50
5134;DHT22;2585;48.696;10.066;2023-04-25T00:47:57;5.10;90.50
5134;DHT22;2585;48.696;10.066;2023-04-25T00:50:24;5.10;90.80
5134;DHT22;2585;48.696;10.066;2023-04-25T00:52:51;5.00;91.00
5134;DHT22;2585;48.696;10.066;2023-04-25T00:55:19;5.00;91.30
5134;DHT22;2585;48.696;10.066;2023-04-25T00:57:46;4.90;91.40
5134;DHT22;2585;48.696;10.066;2023-04-25T01:00:13;4.90;91.50
5134;DHT22;2585;48.696;10.066;2023-04-25T01:02:41;4.90;91.60
5134;DHT22;2585;48.696;10.066;2023-04-25T01:05:11;4.80;91.60
5134;DHT22;2585;48.696;10.066;2023-04-25T01:07:38;4.80;91.50
5134;DHT22;2585;48.696;10.066;2023-04-25T01:10:06;4.70;91.50
5134;DHT22;2585;48.696;10.066;2023-04-25T01:12:33;4.50;91.50
5134;DHT22;2585;48.696;10.066;2023-04-25T01:15:00;4.50;91.70
5134;DHT22;2585;48.696;10.066;2023-04-25T01:17:28;4.40;91.90
5134;DHT22;2585;48.696;10.066;2023-04-25T01:19:55;4.30;92.00
5134;DHT22;2585;48.696;10.066;2023-04-25T01:22:23;4.30;92.20
5134;DHT22;2585;48.696;10.066;2023-04-25T01:24:49;4.40;92.30
5134;DHT22;2585;48.696;10.066;2023-04-25T01:27:17;4.40;92.30
5134;DHT22;2585;48.696;10.066;2023-04-25T01:29:44;4.30;92.50
5134;DHT22;2585;48.696;10.066;2023-04-25T01:32:13;4.40;92.60
5134;DHT22;2585;48.696;10.066;2023-04-25T01:34:40;4.30;92.70
5134;DHT22;2585;48.696;10.066;2023-04-25T01:37:07;4.30;92.80
5134;DHT22;2585;48.696;10.066;2023-04-25T01:39:34;4.40;93.10
5134;DHT22;2585;48.696;10.066;2023-04-25T01:42:01;4.40;93.20
5134;DHT22;2585;48.696;10.066;2023-04-25T01:44:28;4.40;93.30
5134;DHT22;2585;48.696;10.066;2023-04-25T01:46:55;4.40;93.50
5134;DHT22;2585;48.696;10.066;2023-04-25T01:49:21;4.50;93.50
5134;DHT22;2585;48.696;10.066;2023-04-25T01:51:48;4.50;93.50
5134;DHT22;2585;48.696;10.066;2023-04-25T01:54:15;4.50;93.50
5134;DHT22;2585;48.696;10.066;2023-04-25T01:56:42;4.60;93.60
5134;DHT22;2585;48.696;10.066;2023-04-25T01:59:08;4.60;93.50
5134;DHT22;2585;48.696;10.066;2023-04-25T02:01:35;4.70;93.60
5134;DHT22;2585;48.696;10.066;2023-04-25T02:04:02;4.70;93.50
5134;DHT22;2585;48.696;10.066;2023-04-25T02:06:29;4.70;93.50
5134;DHT22;2585;48.696;10.066;2023-04-25T02:08:57;4.60;93.50
5134;DHT22;2585;48.696;10.066;2023-04-25T02:11:24;4.60;93.40
5134;DHT22;2585;48.696;10.066;2023-04-25T02:13:50;4.60;93.40
5134;DHT22;2585;48.696;10.066;2023-04-25T02:16:18;4.60;93.50
5134;DHT22;2585;48.696;10.066;2023-04-25T02:18:45;4.60;93.60
5134;DHT22;2585;48.696;10.066;2023-04-25T02:21:13;4.60;93.60
5134;DHT22;2585;48.696;10.066;2023-04-25T02:23:40;4.60;93.60
5134;DHT22;2585;48.696;10.066;2023-04-25T02:26:07;4.60;93.70
5134;DHT22;2585;48.696;10.066;2023-04-25T02:28:33;4.50;93.60
5134;DHT22;2585;48.696;10.066;2023-04-25T02:31:00;4.50;93.70
5134;DHT22;2585;48.696;10.066;2023-04-25T02:33:27;4.50;93.80
5134;DHT22;2585;48.696;10.066;2023-04-25T02:35:54;4.60;93.80
5134;DHT22;2585;48.696;10.066;2023-04-25T02:38:20;4.60;93.80
5134;DHT22;2585;48.696;10.066;2023-04-25T02:40:47;4.70;93.90
5134;DHT22;2585;48.696;10.066;2023-04-25T02:43:14;4.70;93.90
5134;DHT22;2585;48.696;10.066;2023-04-25T02:45:42;4.70;93.90
5134;DHT22;2585;48.696;10.066;2023-04-25T02:48:09;4.60;93.90
5134;DHT22;2585;48.696;10.066;2023-04-25T02:50:36;4.60;93.90
5134;DHT22;2585;48.696;10.066;2023-04-25T02:53:02;4.50;93.80
5134;DHT22;2585;48.696;10.066;2023-04-25T02:55:29;4.60;94.00
5134;DHT22;2585;48.696;10.066;2023-04-25T02:57:56;4.50;94.00
5134;DHT22;2585;48.696;10.066;2023-04-25T03:00:23;4.50;94.00
5134;DHT22;2585;48.696;10.066;2023-04-25T03:02:50;4.50;94.10
5134;DHT22;2585;48.696;10.066;2023-04-25T03:05:17;4.50;94.10
5134;DHT22;2585;48.696;10.066;2023-04-25T03:07:44;4.50;94.10
5134;DHT22;2585;48.696;10.066;2023-04-25T03:10:12;4.50;94.10
5134;DHT22;2585;48.696;10.066;2023-04-25T03:12:39;4.40;94.10
5134;DHT22;2585;48.696;10.066;2023-04-25T03:15:06;4.40;94.10
5134;DHT22;2585;48.696;10.066;2023-04-25T03:17:32;4.30;94.10
5134;DHT22;2585;48.696;10.066;2023-04-25T03:20:00;4.20;94.10
5134;DHT22;2585;48.696;10.066;2023-04-25T03:22:27;4.10;94.10
5134;DHT22;2585;48.696;10.066;2023-04-25T03:24:54;4.20;94.20
5134;DHT22;2585;48.696;10.066;2023-04-25T03:27:21;4.10;94.30
5134;DHT22;2585;48.696;10.066;2023-04-25T03:29:47;4.10;94.30
5134;DHT22;2585;48.696;10.066;2023-04-25T03:32:14;4.00;94.30
5134;DHT22;2585;48.696;10.066;2023-04-25T03:34:41;4.00;94.40
5134;DHT22;2585;48.696;10.066;2023-04-25T03:37:08;4.00;94.40
5134;DHT22;2585;48.696;10.066;2023-04-25T03:39:35;4.10;94.50
5134;DHT22;2585;48.696;10.066;2023-04-25T03:42:01;4.10;94.50
5134;DHT22;2585;48.696;10.066;2023-04-25T03:44:29;4.10;94.60
5134;DHT22;2585;48.696;10.066;2023-04-25T03:46:56;4.10;94.60
5134;DHT22;2585;48.696;10.066;2023-04-25T03:49:23;4.00;94.60
5134;DHT22;2585;48.696;10.066;2023-04-25T03:51:50;4.00;94.60
5134;DHT22;2585;48.696;10.066;2023-04-25T03:54:17;3.90;94.60
5134;DHT22;2585;48.696;10.066;2023-04-25T03:56:44;4.00;94.60
5134;DHT22;2585;48.696;10.066;2023-04-25T03:59:11;4.00;94.60
5134;DHT22;2585;48.696;10.066;2023-04-25T04:01:37;4.00;94.70
5134;DHT22;2585;48.696;10.066;2023-04-25T04:04:04;3.90;94.60
5134;DHT22;2585;48.696;10.066;2023-04-25T04:06:31;3.90;94.60
5134;DHT22;2585;48.696;10.066;2023-04-25T04:08:58;3.80;94.60
5134;DHT22;2585;48.696;10.066;2023-04-25T04:11:25;3.80;94.60
5134;DHT22;2585;48.696;10.066;2023-04-25T04:13:52;3.90;94.70
5134;DHT22;2585;48.696;10.066;2023-04-25T04:16:19;3.90;94.70
5134;DHT22;2585;48.696;10.066;2023-04-25T04:18:46;3.90;94.70
5134;DHT22;2585;48.696;10.066;2023-04-25T04:21:13;3.90;94.70
5134;DHT22;2585;48.696;10.066;2023-04-25T04:23:39;4.00;94.80
5134;DHT22;2585;48.696;10.066;2023-04-25T04:26:06;4.00;94.80
5134;DHT22;2585;48.696;10.066;2023-04-25T04:28:35;4.10;94.80
5134;DHT22;2585;48.696;10.066;2023-04-25T04:31:02;4.10;94.90
5134;DHT22;2585;48.696;10.066;2023-04-25T04:33:29;4.10;94.90
5134;DHT22;2585;48.696;10.066;2023-04-25T04:35:57;4.20;94.90
5134;DHT22;2585;48.696;10.066;2023-04-25T04:38:24;4.20;94.90
5134;DHT22;2585;48.696;10.066;2023-04-25T04:40:51;4.30;95.00
5134;DHT22;2585;48.696;10.066;2023-04-25T04:43:18;4.30;95.00
5134;DHT22;2585;48.696;10.066;2023-04-25T04:45:45;4.30;95.00
5134;DHT22;2585;48.696;10.066;2023-04-25T04:48:12;4.30;95.00
5134;DHT22;2585;48.696;10.066;2023-04-25T04:50:40;4.20;95.00
5134;DHT22;2585;48.696;10.066;2023-04-25T04:53:09;4.20;95.00
5134;DHT22;2585;48.696;10.066;2023-04-25T04:55:36;4.20;95.00
5134;DHT22;2585;48.696;10.066;2023-04-25T04:58:02;4.20;95.00
5134;DHT22;2585;48.696;10.066;2023-04-25T05:00:29;4.30;95.00
5134;DHT22;2585;48.696;10.066;2023-04-25T05:02:56;4.50;95.10
5134;DHT22;2585;48.696;10.066;2023-04-25T05:05:23;4.60;95.10
5134;DHT22;2585;48.696;10.066;2023-04-25T05:07:51;4.60;95.10
5134;DHT22;2585;48.696;10.066;2023-04-25T05:10:19;4.60;95.10
5134;DHT22;2585;48.696;10.066;2023-04-25T05:12:45;4.70;95.10
5134;DHT22;2585;48.696;10.066;2023-04-25T05:15:13;4.60;95.10
5134;DHT22;2585;48.696;10.066;2023-04-25T05:17:40;4.70;95.10
5134;DHT22;2585;48.696;10.066;2023-04-25T05:20:07;4.70;95.10
5134;DHT22;2585;48.696;10.066;2023-04-25T05:22:35;4.80;95.20
5134;DHT22;2585;48.696;10.066;2023-04-25T05:25:02;4.80;95.20
5134;DHT22;2585;48.696;10.066;2023-04-25T05:27:30;4.90;95.20
5134;DHT22;2585;48.696;10.066;2023-04-25T05:29:56;4.90;95.20
5134;DHT22;2585;48.696;10.066;2023-04-25T05:32:23;5.00;95.20
5134;DHT22;2585;48.696;10.066;2023-04-25T05:34:51;5.00;95.20
5134;DHT22;2585;48.696;10.066;2023-04-25T05:37:18;5.10;95.20
5134;DHT22;2585;48.696;10.066;2023-04-25T05:39:45;5.20;95.30
5134;DHT22;2585;48.696;10.066;2023-04-25T05:42:12;5.20;95.20
5134;DHT22;2585;48.696;10.066;2023-04-25T05:44:39;5.30;95.30
5134;DHT22;2585;48.696;10.066;2023-04-25T05:47:05;5.40;95.30
5134;DHT22;2585;48.696;10.066;2023-04-25T05:49:33;5.40;95.20
5134;DHT22;2585;48.696;10.066;2023-04-25T05:52:00;5.50;95.20
5134;DHT22;2585;48.696;10.066;2023-04-25T05:54:27;5.60;95.20
5134;DHT22;2585;48.696;10.066;2023-04-25T05:56:53;5.70;95.20
5134;DHT22;2585;48.696;10.066;2023-04-25T05:59:20;5.70;95.20
5134;DHT22;2585;48.696;10.066;2023-04-25T06:01:47;5.70;95.20
5134;DHT22;2585;48.696;10.066;2023-04-25T06:04:14;5.70;95.10
5134;DHT22;2585;48.696;10.066;2023-04-25T06:06:41;5.70;95.10
5134;DHT22;2585;48.696;10.066;2023-04-25T06:09:08;5.80;95.00
5134;DHT22;2585;48.696;10.066;2023-04-25T06:11:34;5.90;95.00
5134;DHT22;2585;48.696;10.066;2023-04-25T06:14:01;6.10;95.00
5134;DHT22;2585;48.696;10.066;2023-04-25T06:16:28;6.20;90.30
5134;DHT22;2585;48.696;10.066;2023-04-25T06:18:55;6.30;90.10
5134;DHT22;2585;48.696;10.066;2023-04-25T06:21:22;6.40;90.10
5134;DHT22;2585;48.696;10.066;2023-04-25T06:23:49;6.50;90.10
5134;DHT22;2585;48.696;10.066;2023-04-25T06:26:16;6.50;89.30
5134;DHT22;2585;48.696;10.066;2023-04-25T06:28:43;6.50;88.80
5134;DHT22;2585;48.696;10.066;2023-04-25T06:31:10;6.50;87.40
5134;DHT22;2585;48.696;10.066;2023-04-25T06:33:37;6.50;84.40
5134;DHT22;2585;48.696;10.066;2023-04-25T06:36:04;6.50;82.60
5134;DHT22;2585;48.696;10.066;2023-04-25T06:38:31;6.60;82.40
5134;DHT22;2585;48.696;10.066;2023-04-25T06:40:57;6.60;82.10
5134;DHT22;2585;48.696;10.066;2023-04-25T06:43:24;6.70;81.20
5134;DHT22;2585;48.696;10.066;2023-04-25T06:45:51;6.70;79.50
5134;DHT22;2585;48.696;10.066;2023-04-25T06:48:18;6.70;79.70
5134;DHT22;2585;48.696;10.066;2023-04-25T06:50:44;6.70;76.00
5134;DHT22;2585;48.696;10.066;2023-04-25T06:53:11;6.70;73.30
5134;DHT22;2585;48.696;10.066;2023-04-25T06:55:38;6.70;72.20
5134;DHT22;2585;48.696;10.066;2023-04-25T06:58:05;6.80;73.30
5134;DHT22;2585;48.696;10.066;2023-04-25T07:00:32;6.80;69.60
5134;DHT22;2585;48.696;10.066;2023-04-25T07:03:00;7.00;66.60
5134;DHT22;2585;48.696;10.066;2023-04-25T07:05:27;7.20;63.80
5134;DHT22;2585;48.696;10.066;2023-04-25T07:07:54;7.30;62.40
5134;DHT22;2585;48.696;10.066;2023-04-25T07:10:21;7.50;60.10
5134;DHT22;2585;48.696;10.066;2023-04-25T07:12:48;7.60;1.00
5134;DHT22;2585;48.696;10.066;2023-04-25T07:15:15;8.00;1.00
5134;DHT22;2585;48.696;10.066;2023-04-25T07:17:42;8.20;1.00
5134;DHT22;2585;48.696;10.066;2023-04-25T07:20:09;8.10;82.80
5134;DHT22;2585;48.696;10.066;2023-04-25T07:22:36;8.00;53.40
5134;DHT22;2585;48.696;10.066;2023-04-25T07:25:03;7.90;3.40
5134;DHT22;2585;48.696;10.066;2023-04-25T07:27:33;7.70;1.00
5134;DHT22;2585;48.696;10.066;2023-04-25T07:30:00;7.70;66.50
5134;DHT22;2585;48.696;10.066;2023-04-25T07:32:27;7.80;75.60
5134;DHT22;2585;48.696;10.066;2023-04-25T07:34:54;7.80;15.50
5134;DHT22;2585;48.696;10.066;2023-04-25T07:37:21;7.80;1.00
5134;DHT22;2585;48.696;10.066;2023-04-25T07:39:47;8.00;1.00
5134;DHT22;2585;48.696;10.066;2023-04-25T07:42:14;8.10;12.00
5134;DHT22;2585;48.696;10.066;2023-04-25T07:44:41;8.00;85.30
5134;DHT22;2585;48.696;10.066;2023-04-25T07:47:09;8.00;91.00
5134;DHT22;2585;48.696;10.066;2023-04-25T07:49:37;7.90;74.10
5134;DHT22;2585;48.696;10.066;2023-04-25T07:52:05;7.80;34.30
5134;DHT22;2585;48.696;10.066;2023-04-25T07:54:32;7.70;50.60
5134;DHT22;2585;48.696;10.066;2023-04-25T07:56:59;7.70;1.00
5134;DHT22;2585;48.696;10.066;2023-04-25T07:59:26;7.80;1.00
5134;DHT22;2585;48.696;10.066;2023-04-25T08:01:55;7.90;1.00
5134;DHT22;2585;48.696;10.066;2023-04-25T08:04:24;7.90;90.50
5134;DHT22;2585;48.696;10.066;2023-04-25T08:06:52;7.90;87.40
5134;DHT22;2585;48.696;10.066;2023-04-25T08:09:20;7.80;1.00
5134;DHT22;2585;48.696;10.066;2023-04-25T08:11:48;7.80;24.40
5134;DHT22;2585;48.696;10.066;2023-04-25T08:14:14;7.90;89.90
5134;DHT22;2585;48.696;10.066;2023-04-25T08:16:41;8.00;83.40
5134;DHT22;2585;48.696;10.066;2023-04-25T08:19:09;8.10;1.00
5134;DHT22;2585;48.696;10.066;2023-04-25T08:21:36;8.20;80.50
5134;DHT22;2585;48.696;10.066;2023-04-25T08:24:03;8.30;61.80
5134;DHT22;2585;48.696;10.066;2023-04-25T08:26:30;8.50;41.70
5134;DHT22;2585;48.696;10.066;2023-04-25T08:28:57;8.50;73.10
5134;DHT22;2585;48.696;10.066;2023-04-25T08:31:24;8.60;10.50
5134;DHT22;2585;48.696;10.066;2023-04-25T08:33:50;8.50;1.00
5134;DHT22;2585;48.696;10.066;2023-04-25T08:36:18;8.50;1.00
5134;DHT22;2585;48.696;10.066;2023-04-25T08:39:03;8.70;72.90
5134;DHT22;2585;48.696;10.066;2023-04-25T08:41:31;8.80;44.60
5134;DHT22;2585;48.696;10.066;2023-04-25T08:43:58;8.90;79.00
5134;DHT22;2585;48.696;10.066;2023-04-25T08:46:27;8.90;1.00
5134;DHT22;2585;48.696;10.066;2023-04-25T08:48:58;9.10;86.60
5134;DHT22;2585;48.696;10.066;2023-04-25T08:51:27;9.30;1.00
5134;DHT22;2585;48.696;10.066;2023-04-25T08:54:06;9.30;4.20
5134;DHT22;2585;48.696;10.066;2023-04-25T08:56:49;9.30;1.00
5134;DHT22;2585;48.696;10.066;2023-04-25T08:59:17;9.20;8.70
5134;DHT22;2585;48.696;10.066;2023-04-25T09:01:43;9.00;68.70
5134;DHT22;2585;48.696;10.066;2023-04-25T09:04:12;8.70;41.60
5134;DHT22;2585;48.696;10.066;2023-04-25T09:06:39;8.50;1.00
5134;DHT22;2585;48.696;10.066;2023-04-25T09:09:08;8.10;1.00
5134;DHT22;2585;48.696;10.066;2023-04-25T09:11:36;8.00;70.30
5134;DHT22;2585;48.696;10.066;2023-04-25T09:14:16;7.70;1.00
5134;DHT22;2585;48.696;10.066;2023-04-25T09:19:23;7.30;70.10
5134;DHT22;2585;48.696;10.066;2023-04-25T09:22:07;7.10;1.00
5134;DHT22;2585;48.696;10.066;2023-04-25T09:24:39;7.10;1.00
5134;DHT22;2585;48.696;10.066;2023-04-25T09:27:11;7.00;1.00
5134;DHT22;2585;48.696;10.066;2023-04-25T09:29:39;7.10;8.40
5134;DHT22;2585;48.696;10.066;2023-04-25T09:34:45;7.30;62.50
5134;DHT22;2585;48.696;10.066;2023-04-25T09:37:41;7.40;61.60
5134;DHT22;2585;48.696;10.066;2023-04-25T09:40:08;7.50;64.20
5134;DHT22;2585;48.696;10.066;2023-04-25T09:42:41;7.60;62.70
5134;DHT22;2585;48.696;10.066;2023-04-25T09:45:08;7.60;61.00
5134;DHT22;2585;48.696;10.066;2023-04-25T09:47:40;7.70;60.00
5134;DHT22;2585;48.696;10.066;2023-04-25T09:50:17;7.50;1.00
5134;DHT22;2585;48.696;10.066;2023-04-25T09:52:45;7.80;16.50
5134;DHT22;2585;48.696;10.066;2023-04-25T09:55:12;7.60;1.00
5134;DHT22;2585;48.696;10.066;2023-04-25T09:57:39;7.80;1.00
5134;DHT22;2585;48.696;10.066;2023-04-25T10:00:07;7.90;1.00
5134;DHT22;2585;48.696;10.066;2023-04-25T10:02:38;7.90;4.90
5134;DHT22;2585;48.696;10.066;2023-04-25T10:05:09;8.20;24.00
5134;DHT22;2585;48.696;10.066;2023-04-25T10:07:38;8.20;19.50
5134;DHT22;2585;48.696;10.066;2023-04-25T10:10:05;8.30;1.00
5134;DHT22;2585;48.696;10.066;2023-04-25T10:12:33;8.40;1.00
5134;DHT22;2585;48.696;10.066;2023-04-25T10:15:01;8.50;1.00
5134;DHT22;2585;48.696;10.066;2023-04-25T10:17:29;8.60;1.00
5134;DHT22;2585;48.696;10.066;2023-04-25T10:19:56;8.80;1.00
5134;DHT22;2585;48.696;10.066;2023-04-25T10:22:31;8.90;1.00
5134;DHT22;2585;48.696;10.066;2023-04-25T10:24:59;8.60;89.60
5134;DHT22;2585;48.696;10.066;2023-04-25T10:27:27;8.60;1.00
5134;DHT22;2585;48.696;10.066;2023-04-25T10:30:08;8.80;1.00
5134;DHT22;2585;48.696;10.066;2023-04-25T10:32:38;9.10;1.00
5134;DHT22;2585;48.696;10.066;2023-04-25T10:35:19;9.40;1.00
5134;DHT22;2585;48.696;10.066;2023-04-25T10:38:09;9.50;58.80
5134;DHT22;2585;48.696;10.066;2023-04-25T10:40:36;9.40;38.00
5134;DHT22;2585;48.696;10.066;2023-04-25T10:45:55;9.00;1.00
5134;DHT22;2585;48.696;10.066;2023-04-25T10:48:48;9.10;1.00
5134;DHT22;2585;48.696;10.066;2023-04-25T10:51:23;9.10;81.00
5134;DHT22;2585;48.696;10.066;2023-04-25T10:54:05;9.10;1.00
5134;DHT22;2585;48.696;10.066;2023-04-25T10:56:40;9.10;1.00
5134;DHT22;2585;48.696;10.066;2023-04-25T10:59:17;8.90;3.20
5134;DHT22;2585;48.696;10.066;2023-04-25T11:01:46;8.50;5.40
5134;DHT22;2585;48.696;10.066;2023-04-25T11:04:24;8.20;1.00
5134;DHT22;2585;48.696;10.066;2023-04-25T11:09:35;8.00;78.80
5134;DHT22;2585;48.696;10.066;2023-04-25T11:12:03;8.10;67.00
5134;DHT22;2585;48.696;10.066;2023-04-25T11:14:30;8.30;1.00
5134;DHT22;2585;48.696;10.066;2023-04-25T11:16:58;8.50;1.00
5134;DHT22;2585;48.696;10.066;2023-04-25T11:19:27;8.40;1.00
5134;DHT22;2585;48.696;10.066;2023-04-25T11:22:02;8.40;15.40
5134;DHT22;2585;48.696;10.066;2023-04-25T11:24:34;8.50;72.70
5134;DHT22;2585;48.696;10.066;2023-04-25T11:27:02;8.30;17.40
5134;DHT22;2585;48.696;10.066;2023-04-25T11:29:30;8.20;19.00
5134;DHT22;2585;48.696;10.066;2023-04-25T11:31:57;8.00;1.00
5134;DHT22;2585;48.696;10.066;2023-04-25T11:34:25;7.90;1.00
5134;DHT22;2585;48.696;10.066;2023-04-25T11:36:53;7.60;1.00
5134;DHT22;2585;48.696;10.066;2023-04-25T11:39:20;7.20;14.90
5134;DHT22;2585;48.696;10.066;2023-04-25T11:41:48;6.90;1.00
5134;DHT22;2585;48.696;10.066;2023-04-25T11:44:18;6.60;1.00
5134;DHT22;2585;48.696;10.066;2023-04-25T11:46:46;6.40;1.00
5134;DHT22;2585;48.696;10.066;2023-04-25T11:49:16;6.40;1.00
5134;DHT22;2585;48.696;10.066;2023-04-25T11:51:46;6.40;15.10
5134;DHT22;2585;48.696;10.066;2023-04-25T11:54:14;6.50;45.70
5134;DHT22;2585;48.696;10.066;2023-04-25T11:56:42;6.50;29.60
5134;DHT22;2585;48.696;10.066;2023-04-25T11:59:09;6.50;55.50
5134;DHT22;2585;48.696;10.066;2023-04-25T12:01:39;6.70;63.00
5134;DHT22;2585;48.696;10.066;2023-04-25T12:04:13;6.80;68.70
5134;DHT22;2585;48.696;10.066;2023-04-25T12:06:42;6.80;72.00
5134;DHT22;2585;48.696;10.066;2023-04-25T12:09:10;6.90;70.40
5134;DHT22;2585;48.696;10.066;2023-04-25T12:11:48;6.70;38.10
5134;DHT22;2585;48.696;10.066;2023-04-25T12:14:23;6.80;51.60
5134;DHT22;2585;48.696;10.066;2023-04-25T12:16:58;6.70;32.60
5134;DHT22;2585;48.696;10.066;2023-04-25T12:19:26;6.60;38.20
5134;DHT22;2585;48.696;10.066;2023-04-25T12:21:53;6.70;15.90
5134;DHT22;2585;48.696;10.066;2023-04-25T12:24:26;6.70;26.80
5134;DHT22;2585;48.696;10.066;2023-04-25T12:27:04;6.70;35.80
5134;DHT22;2585;48.696;10.066;2023-04-25T12:29:33;6.80;56.50
5134;DHT22;2585;48.696;10.066;2023-04-25T12:32:15;6.90;39.60
5134;DHT22;2585;48.696;10.066;2023-04-25T12:34:42;6.90;36.60
5134;DHT22;2585;48.696;10.066;2023-04-25T12:37:09;6.90;28.30
5134;DHT22;2585;48.696;10.066;2023-04-25T12:39:36;7.00;39.30
5134;DHT22;2585;48.696;10.066;2023-04-25T12:42:03;6.70;14.50
5134;DHT22;2585;48.696;10.066;2023-04-25T12:44:34;6.60;1.00
5134;DHT22;2585;48.696;10.066;2023-04-25T12:47:02;6.70;23.10
5134;DHT22;2585;48.696;10.066;2023-04-25T12:49:29;6.60;8.70
5134;DHT22;2585;48.696;10.066;2023-04-25T12:51:56;6.50;1.00
5134;DHT22;2585;48.696;10.066;2023-04-25T12:54:23;6.50;28.20
5134;DHT22;2585;48.696;10.066;2023-04-25T12:56:51;6.40;29.50
5134;DHT22;2585;48.696;10.066;2023-04-25T12:59:18;6.20;1.00
5134;DHT22;2585;48.696;10.066;2023-04-25T13:01:46;6.40;52.60
5134;DHT22;2585;48.696;10.066;2023-04-25T13:04:13;6.50;53.00
5134;DHT22;2585;48.696;10.066;2023-04-25T13:06:40;6.60;63.10
5134;DHT22;2585;48.696;10.066;2023-04-25T13:09:07;6.60;60.50
5134;DHT22;2585;48.696;10.066;2023-04-25T13:11:33;7.00;63.90
5134;DHT22;2585;48.696;10.066;2023-04-25T13:14:00;6.90;13.20
5134;DHT22;2585;48.696;10.066;2023-04-25T13:16:28;7.20;1.00
5134;DHT22;2585;48.696;10.066;2023-04-25T13:18:55;7.40;10.30
5134;DHT22;2585;48.696;10.066;2023-04-25T13:21:23;7.50;1.00
5134;DHT22;2585;48.696;10.066;2023-04-25T13:23:49;7.50;1.00
5134;DHT22;2585;48.696;10.066;2023-04-25T13:26:17;7.80;1.00
5134;DHT22;2585;48.696;10.066;2023-04-25T13:28:44;8.00;1.00
5134;DHT22;2585;48.696;10.066;2023-04-25T13:31:11;8.30;1.00
5134;DHT22;2585;48.696;10.066;2023-04-25T13:33:38;8.70;1.00
5134;DHT22;2585;48.696;10.066;2023-04-25T13:36:05;8.80;91.30
5134;DHT22;2585;48.696;10.066;2023-04-25T13:38:32;9.10;82.60
5134;DHT22;2585;48.696;10.066;2023-04-25T13:40:59;9.20;1.00
5134;DHT22;2585;48.696;10.066;2023-04-25T13:43:26;9.10;85.90
5134;DHT22;2585;48.696;10.066;2023-04-25T13:45:52;9.10;1.00
5134;DHT22;2585;48.696;10.066;2023-04-25T13:48:19;9.30;1.00
5134;DHT22;2585;48.696;10.066;2023-04-25T13:50:46;9.70;1.00
5134;DHT22;2585;48.696;10.066;2023-04-25T13:53:13;10.50;1.00
5134;DHT22;2585;48.696;10.066;2023-04-25T13:55:40;11.30;28.10
5134;DHT22;2585;48.696;10.066;2023-04-25T13:58:07;11.40;62.30
5134;DHT22;2585;48.696;10.066;2023-04-25T14:00:37;10.80;59.20
5134;DHT22;2585;48.696;10.066;2023-04-25T14:03:06;10.50;65.80
5134;DHT22;2585;48.696;10.066;2023-04-25T14:05:36;10.30;1.00
5134;DHT22;2585;48.696;10.066;2023-04-25T14:08:08;10.10;1.00
5134;DHT22;2585;48.696;10.066;2023-04-25T14:10:35;9.60;1.00
5134;DHT22;2585;48.696;10.066;2023-04-25T14:13:02;9.30;1.00
5134;DHT22;2585;48.696;10.066;2023-04-25T14:15:34;9.50;1.00
5134;DHT22;2585;48.696;10.066;2023-04-25T14:18:01;10.20;1.00
5134;DHT22;2585;48.696;10.066;2023-04-25T14:20:28;10.40;1.00
5134;DHT22;2585;48.696;10.066;2023-04-25T14:22:55;10.20;85.70
5134;DHT22;2585;48.696;10.066;2023-04-25T14:25:24;9.80;1.00
5134;DHT22;2585;48.696;10.066;2023-04-25T14:27:51;9.50;1.00
5134;DHT22;2585;48.696;10.066;2023-04-25T14:30:19;9.70;1.00
5134;DHT22;2585;48.696;10.066;2023-04-25T14:32:48;10.10;1.00
5134;DHT22;2585;48.696;10.066;2023-04-25T14:35:16;10.20;49.80
5134;DHT22;2585;48.696;10.066;2023-04-25T14:37:43;9.70;44.30
5134;DHT22;2585;48.696;10.066;2023-04-25T14:40:10;9.50;1.00
5134;DHT22;2585;48.696;10.066;2023-04-25T14:42:39;9.30;79.90
5134;DHT22;2585;48.696;10.066;2023-04-25T14:45:07;9.40;1.00
5134;DHT22;2585;48.696;10.066;2023-04-25T14:47:38;9.90;1.00
5134;DHT22;2585;48.696;10.066;2023-04-25T14:50:06;10.20;1.00
5134;DHT22;2585;48.696;10.066;2023-04-25T14:52:33;10.00;61.00
5134;DHT22;2585;48.696;10.066;2023-04-25T14:55:00;10.00;69.60
5134;DHT22;2585;48.696;10.066;2023-04-25T14:57:34;9.90;89.60
5134;DHT22;2585;48.696;10.066;2023-04-25T15:00:02;9.50;80.20
5134;DHT22;2585;48.696;10.066;2023-04-25T15:02:31;9.60;82.60
5134;DHT22;2585;48.696;10.066;2023-04-25T15:04:58;9.60;75.60
5134;DHT22;2585;48.696;10.066;2023-04-25T15:07:25;9.70;75.90
5134;DHT22;2585;48.696;10.066;2023-04-25T15:09:52;9.70;1.00
5134;DHT22;2585;48.696;10.066;2023-04-25T15:12:20;9.60;1.00
5134;DHT22;2585;48.696;10.066;2023-04-25T15:14:47;9.70;1.00
5134;DHT22;2585;48.696;10.066;2023-04-25T15:17:14;9.40;1.00
5134;DHT22;2585;48.696;10.066;2023-04-25T15:19:41;9.20;1.00
5134;DHT22;2585;48.696;10.066;2023-04-25T15:22:08;9.10;70.00
5134;DHT22;2585;48.696;10.066;2023-04-25T15:24:35;8.90;61.40
5134;DHT22;2585;48.696;10.066;2023-04-25T15:27:02;8.70;1.00
5134;DHT22;2585;48.696;10.066;2023-04-25T15:29:29;8.50;1.00
5134;DHT22;2585;48.696;10.066;2023-04-25T15:31:56;8.50;1.00
5134;DHT22;2585;48.696;10.066;2023-04-25T15:34:23;8.50;1.00
5134;DHT22;2585;48.696;10.066;2023-04-25T15:36:50;8.40;1.00
5134;DHT22;2585;48.696;10.066;2023-04-25T15:39:17;8.40;1.00
5134;DHT22;2585;48.696;10.066;2023-04-25T15:41:44;8.30;1.00
5134;DHT22;2585;48.696;10.066;2023-04-25T15:44:11;8.10;1.00
5134;DHT22;2585;48.696;10.066;2023-04-25T15:46:38;8.10;62.30
5134;DHT22;2585;48.696;10.066;2023-04-25T15:49:05;8.00;64.50
5134;DHT22;2585;48.696;10.066;2023-04-25T15:51:32;8.00;40.00
5134;DHT22;2585;48.696;10.066;2023-04-25T15:53:59;7.80;61.80
5134;DHT22;2585;48.696;10.066;2023-04-25T15:56:28;7.60;1.00
5134;DHT22;2585;48.696;10.066;2023-04-25T15:58:55;7.20;78.30
5134;DHT22;2585;48.696;10.066;2023-04-25T16:01:22;6.80;1.00
5134;DHT22;2585;48.696;10.066;2023-04-25T16:03:50;6.70;46.20
5134;DHT22;2585;48.696;10.066;2023-04-25T16:06:19;6.60;74.70
5134;DHT22;2585;48.696;10.066;2023-04-25T16:08:45;6.50;1.00
5134;DHT22;2585;48.696;10.066;2023-04-25T16:11:12;6.40;1.00
5134;DHT22;2585;48.696;10.066;2023-04-25T16:13:40;6.40;1.00
5134;DHT22;2585;48.696;10.066;2023-04-25T16:16:07;6.50;1.00
5134;DHT22;2585;48.696;10.066;2023-04-25T16:18:34;6.50;1.00
5134;DHT22;2585;48.696;10.066;2023-04-25T16:21:01;6.50;1.00